createdAt,value
2023-03-02T00:02:23.170Z,100.00
2023-03-02T00:04:57.083Z,100.00
2023-03-02T00:07:32.693Z,100.00
2023-03-02T00:10:02.781Z,100.00
2023-03-02T00:12:35.548Z,100.00
2023-03-02T00:15:06.325Z,100.00
2023-03-02T00:17:35.184Z,100.00
2023-03-02T00:20:09.773Z,100.00
2023-03-02T00:22:39.924Z,100.00
2023-03-02T00:25:13.195Z,100.00
2023-03-02T00:27:43.839Z,100.00
2023-03-02T00:30:15.999Z,100.00
2023-03-02T00:32:46.369Z,100.00
2023-03-02T00:35:14.955Z,100.00
2023-03-02T00:37:44.847Z,100.00
2023-03-02T00:40:14.880Z,100.00
2023-03-02T00:42:45.184Z,100.00
2023-03-02T00:45:14.075Z,100.00
2023-03-02T00:47:43.528Z,100.00
2023-03-02T00:50:14.168Z,100.00
2023-03-02T00:52:44.132Z,100.00
2023-03-02T00:55:13.560Z,100.00
2023-03-02T00:57:42.906Z,100.00
2023-03-02T01:00:16.444Z,100.00
2023-03-02T01:02:45.955Z,100.00
2023-03-02T01:05:15.051Z,100.00
2023-03-02T01:07:44.247Z,100.00
2023-03-02T01:10:15.571Z,100.00
2023-03-02T01:12:44.824Z,100.00
2023-03-02T01:15:17.750Z,100.00
2023-03-02T01:17:46.872Z,100.00
2023-03-02T01:20:17.787Z,100.00
2023-03-02T01:22:47.279Z,100.00
2023-03-02T01:25:16.209Z,100.00
2023-03-02T01:27:46.126Z,100.00
2023-03-02T01:30:18.106Z,100.00
2023-03-02T01:32:47.620Z,100.00
2023-03-02T01:35:18.406Z,100.00
2023-03-02T01:37:48.889Z,100.00
2023-03-02T01:40:18.295Z,100.00
2023-03-02T01:42:59.171Z,100.00
2023-03-02T01:45:54.255Z,100.00
2023-03-02T01:48:31.136Z,100.00
2023-03-02T01:51:02.101Z,100.00
2023-03-02T01:53:36.800Z,100.00
2023-03-02T01:56:08.086Z,100.00
2023-03-02T01:58:38.888Z,100.00
2023-03-02T02:01:15.499Z,100.00
2023-03-02T02:03:48.710Z,100.00
2023-03-02T02:06:25.912Z,100.00
2023-03-02T02:08:58.765Z,100.00
2023-03-02T02:11:28.695Z,100.00
2023-03-02T02:14:01.263Z,100.00
2023-03-02T02:16:35.901Z,100.00
2023-03-02T02:19:13.846Z,100.00
2023-03-02T02:21:43.813Z,100.00
2023-03-02T02:24:22.780Z,100.00
2023-03-02T02:26:59.390Z,100.00
2023-03-02T02:29:34.043Z,100.00
2023-03-02T02:32:12.444Z,100.00
2023-03-02T02:34:47.399Z,100.00
2023-03-02T02:37:23.411Z,100.00
2023-03-02T02:39:53.864Z,100.00
2023-03-02T02:42:31.519Z,100.00
2023-03-02T02:45:18.997Z,100.00
2023-03-02T02:47:48.219Z,100.00
2023-03-02T02:50:24.294Z,100.00
2023-03-02T02:53:00.715Z,100.00
2023-03-02T02:55:31.009Z,100.00
2023-03-02T02:58:10.695Z,100.00
2023-03-02T03:00:40.509Z,100.00
2023-03-02T03:03:29.492Z,100.00
2023-03-02T03:06:00.946Z,100.00
2023-03-02T03:09:04.131Z,100.00
2023-03-02T03:11:36.736Z,100.00
2023-03-02T03:14:11.499Z,100.00
2023-03-02T03:16:44.701Z,100.00
2023-03-02T03:19:21.462Z,100.00
2023-03-02T03:21:52.944Z,100.00
2023-03-02T03:24:23.345Z,100.00
2023-03-02T03:26:54.200Z,100.00
2023-03-02T03:29:27.465Z,100.00
2023-03-02T03:31:59.868Z,100.00
2023-03-02T03:34:31.133Z,100.00
2023-03-02T03:37:03.056Z,100.00
2023-03-02T03:39:33.446Z,100.00
2023-03-02T03:42:02.915Z,100.00
2023-03-02T03:44:34.003Z,100.00
2023-03-02T03:47:04.495Z,100.00
2023-03-02T03:49:34.813Z,100.00
2023-03-02T03:52:05.200Z,100.00
2023-03-02T03:54:34.629Z,100.00
2023-03-02T03:57:04.067Z,100.00
2023-03-02T03:59:36.059Z,100.00
2023-03-02T04:02:06.109Z,100.00
2023-03-02T04:04:37.606Z,100.00
2023-03-02T04:07:07.260Z,100.00
2023-03-02T04:09:38.527Z,100.00
2023-03-02T04:12:09.906Z,100.00
2023-03-02T04:14:40.361Z,100.00
2023-03-02T04:17:09.756Z,100.00
2023-03-02T04:19:39.354Z,100.00
2023-03-02T04:22:09.415Z,100.00
2023-03-02T04:24:39.137Z,100.00
2023-03-02T04:27:09.253Z,100.00
2023-03-02T04:29:41.051Z,100.00
2023-03-02T04:32:10.617Z,100.00
2023-03-02T04:34:40.147Z,100.00
2023-03-02T04:37:10.557Z,100.00
2023-03-02T04:39:41.024Z,100.00
2023-03-02T04:42:11.481Z,100.00
2023-03-02T04:44:42.251Z,100.00
2023-03-02T04:47:12.638Z,100.00
2023-03-02T04:49:42.261Z,100.00
2023-03-02T04:52:11.778Z,100.00
2023-03-02T04:54:42.200Z,100.00
2023-03-02T04:57:11.632Z,100.00
2023-03-02T04:59:43.004Z,100.00
2023-03-02T05:02:13.205Z,100.00
2023-03-02T05:04:42.435Z,100.00
2023-03-02T05:07:11.798Z,100.00
2023-03-02T05:09:41.173Z,100.00
2023-03-02T05:12:10.974Z,100.00
2023-03-02T05:14:43.864Z,100.00
2023-03-02T05:17:15.402Z,100.00
2023-03-02T05:19:45.035Z,100.00
2023-03-02T05:22:15.137Z,100.00
2023-03-02T05:24:45.641Z,100.00
2023-03-02T05:27:15.406Z,100.00
2023-03-02T05:29:47.302Z,100.00
2023-03-02T05:32:16.241Z,100.00
2023-03-02T05:34:46.319Z,100.00
2023-03-02T05:37:15.271Z,100.00
2023-03-02T05:39:44.126Z,100.00
2023-03-02T05:42:14.230Z,100.00
2023-03-02T05:44:45.082Z,100.00
2023-03-02T05:47:14.045Z,100.00
2023-03-02T05:49:43.104Z,100.00
2023-03-02T05:52:12.564Z,100.00
2023-03-02T05:54:43.000Z,100.00
2023-03-02T05:57:11.354Z,100.00
2023-03-02T05:59:41.727Z,100.00
2023-03-02T06:02:12.999Z,100.00
2023-03-02T06:04:43.319Z,100.00
2023-03-02T06:07:13.908Z,100.00
2023-03-02T06:09:44.179Z,100.00
2023-03-02T06:12:13.177Z,100.00
2023-03-02T06:14:43.579Z,100.00
2023-03-02T06:17:14.381Z,100.00
2023-03-02T06:19:43.786Z,100.00
2023-03-02T06:22:13.816Z,100.00
2023-03-02T06:24:43.282Z,100.00
2023-03-02T06:27:13.626Z,100.00
2023-03-02T06:29:43.330Z,100.00
2023-03-02T06:32:14.992Z,100.00
2023-03-02T06:34:45.060Z,100.00
2023-03-02T06:37:14.825Z,100.00
2023-03-02T06:39:45.276Z,100.00
2023-03-02T06:42:15.666Z,100.00
2023-03-02T06:44:45.825Z,100.00
2023-03-02T06:47:16.762Z,100.00
2023-03-02T06:49:46.840Z,100.00
2023-03-02T06:52:16.561Z,100.00
2023-03-02T06:54:46.438Z,100.00
2023-03-02T06:57:15.848Z,100.00
2023-03-02T06:59:46.071Z,100.00
2023-03-02T07:02:17.448Z,100.00
2023-03-02T07:04:47.874Z,100.00
2023-03-02T07:07:17.653Z,100.00
2023-03-02T07:09:48.161Z,100.00
2023-03-02T07:12:19.073Z,100.00
2023-03-02T07:14:49.202Z,100.00
2023-03-02T07:17:21.695Z,100.00
2023-03-02T07:19:51.158Z,100.00
2023-03-02T07:22:21.398Z,100.00
2023-03-02T07:24:52.153Z,100.00
2023-03-02T07:27:22.514Z,100.00
2023-03-02T07:29:52.351Z,100.00
2023-03-02T07:32:24.130Z,100.00
2023-03-02T07:34:54.186Z,100.00
2023-03-02T07:37:25.168Z,100.00
2023-03-02T07:39:55.884Z,100.00
2023-03-02T07:42:27.672Z,100.00
2023-03-02T07:44:58.258Z,100.00
2023-03-02T07:47:29.462Z,100.00
2023-03-02T07:49:58.181Z,100.00
2023-03-02T07:52:31.037Z,100.00
2023-03-02T07:55:02.243Z,100.00
2023-03-02T07:57:31.982Z,100.00
2023-03-02T08:00:02.084Z,100.00
2023-03-02T08:02:34.378Z,100.00
2023-03-02T08:05:04.508Z,100.00
2023-03-02T08:07:34.772Z,100.00
2023-03-02T08:10:05.688Z,100.00
2023-03-02T08:12:35.784Z,100.00
2023-03-02T08:15:08.292Z,100.00
2023-03-02T08:17:40.068Z,100.00
2023-03-02T08:20:11.206Z,100.00
2023-03-02T08:22:41.168Z,100.00
2023-03-02T08:25:11.974Z,100.00
2023-03-02T08:27:42.039Z,100.00
2023-03-02T08:30:14.678Z,100.00
2023-03-02T08:32:44.842Z,100.00
2023-03-02T08:35:14.314Z,100.00
2023-03-02T08:37:44.866Z,100.00
2023-03-02T08:40:15.994Z,100.00
2023-03-02T08:42:45.020Z,100.00
2023-03-02T08:45:14.654Z,100.00
2023-03-02T08:47:46.871Z,100.00
2023-03-02T08:50:15.860Z,100.00
2023-03-02T08:52:44.866Z,100.00
2023-03-02T08:55:14.468Z,100.00
2023-03-02T08:57:45.544Z,100.00
2023-03-02T09:00:18.103Z,100.00
2023-03-02T09:02:49.422Z,100.00
2023-03-02T09:05:20.089Z,100.00
2023-03-02T09:07:50.545Z,100.00
2023-03-02T09:10:20.716Z,100.00
2023-03-02T09:12:50.130Z,100.00
2023-03-02T09:15:20.405Z,100.00
2023-03-02T09:17:50.977Z,100.00
2023-03-02T09:20:19.600Z,100.00
2023-03-02T09:22:51.478Z,100.00
2023-03-02T09:25:21.945Z,100.00
2023-03-02T09:27:51.143Z,100.00
2023-03-02T09:30:22.270Z,100.00
2023-03-02T09:32:53.682Z,100.00
2023-03-02T09:35:24.768Z,100.00
2023-03-02T09:37:54.299Z,100.00
2023-03-02T09:40:28.069Z,100.00
2023-03-02T09:43:14.257Z,100.00
2023-03-02T09:46:13.603Z,100.00
2023-03-02T09:49:09.247Z,100.00
2023-03-02T09:51:49.035Z,100.00
2023-03-02T09:54:24.775Z,100.00
2023-03-02T09:56:59.660Z,100.00
2023-03-02T09:59:32.776Z,100.00
2023-03-02T10:02:12.423Z,100.00
2023-03-02T10:04:49.770Z,100.00
2023-03-02T10:07:28.357Z,100.00
2023-03-02T10:10:24.539Z,100.00
2023-03-02T10:13:11.446Z,100.00
2023-03-02T10:15:51.190Z,100.00
2023-03-02T10:18:30.783Z,100.00
2023-03-02T10:21:08.592Z,100.00
2023-03-02T10:23:46.896Z,100.00
2023-03-02T10:26:29.301Z,100.00
2023-03-02T10:29:25.404Z,100.00
2023-03-02T10:32:02.548Z,100.00
2023-03-02T10:34:33.031Z,100.00
2023-03-02T10:37:03.453Z,100.00
2023-03-02T10:39:33.914Z,100.00
2023-03-02T10:42:08.540Z,100.00
2023-03-02T10:44:43.142Z,100.00
2023-03-02T10:47:23.468Z,100.00
2023-03-02T10:49:55.410Z,100.00
2023-03-02T10:52:28.721Z,100.00
2023-03-02T10:55:05.918Z,100.00
2023-03-02T10:57:42.108Z,100.00
2023-03-02T11:00:24.379Z,100.00
2023-03-02T11:02:57.288Z,100.00
2023-03-02T11:05:35.934Z,100.00
2023-03-02T11:08:11.521Z,100.00
2023-03-02T11:10:43.519Z,100.00
2023-03-02T11:13:24.718Z,100.00
2023-03-02T11:15:57.577Z,100.00
2023-03-02T11:18:32.814Z,100.00
2023-03-02T11:21:06.950Z,100.00
2023-03-02T11:23:56.071Z,100.00
2023-03-02T11:26:29.774Z,100.00
2023-03-02T11:29:08.801Z,100.00
2023-03-02T11:31:45.827Z,100.00
2023-03-02T11:34:32.683Z,100.00
2023-03-02T11:37:17.707Z,100.00
2023-03-02T11:40:14.562Z,100.00
2023-03-02T11:42:48.120Z,100.00
2023-03-02T11:45:24.021Z,100.00
2023-03-02T11:48:03.146Z,100.00
2023-03-02T11:50:36.526Z,100.00
2023-03-02T11:53:13.279Z,100.00
2023-03-02T11:55:49.084Z,100.00
2023-03-02T11:58:23.010Z,100.00
2023-03-02T12:00:55.394Z,100.00
2023-03-02T12:03:41.758Z,100.00
2023-03-02T12:06:30.018Z,100.00
2023-03-02T12:09:30.944Z,100.00
2023-03-02T12:12:34.036Z,100.00
2023-03-02T12:15:04.350Z,100.00
2023-03-02T12:17:37.204Z,100.00
2023-03-02T12:20:26.981Z,100.00
2023-03-02T12:23:08.005Z,100.00
2023-03-02T12:25:51.897Z,100.00
2023-03-02T12:28:35.295Z,99.52
2023-03-02T12:31:09.736Z,98.92
2023-03-02T12:33:47.824Z,98.25
2023-03-02T12:36:27.183Z,98.62
2023-03-02T12:39:23.892Z,99.06
2023-03-02T12:42:41.196Z,98.47
2023-03-02T12:45:35.131Z,97.59
2023-03-02T12:48:23.653Z,97.90
2023-03-02T12:50:58.081Z,98.20
2023-03-02T12:53:27.513Z,98.49
2023-03-02T12:55:56.517Z,98.54
2023-03-02T12:58:29.870Z,97.93
2023-03-02T13:01:03.465Z,96.44
2023-03-02T13:03:34.039Z,96.56
2023-03-02T13:06:06.083Z,96.78
2023-03-02T13:08:35.494Z,96.91
2023-03-02T13:11:05.730Z,96.55
2023-03-02T13:13:59.075Z,96.23
2023-03-02T13:16:32.506Z,95.57
2023-03-02T13:19:05.401Z,95.28
2023-03-02T13:21:38.241Z,93.88
2023-03-02T13:24:32.594Z,94.88
2023-03-02T13:27:07.695Z,94.01
2023-03-02T13:29:38.609Z,93.40
2023-03-02T13:32:22.917Z,94.39
2023-03-02T13:34:56.902Z,94.58
2023-03-02T13:37:41.039Z,93.84
2023-03-02T13:40:35.436Z,93.42
2023-03-02T13:43:09.304Z,91.98
2023-03-02T13:45:41.525Z,92.11
2023-03-02T13:48:21.403Z,91.06
2023-03-02T13:50:59.065Z,89.73
2023-03-02T13:53:31.212Z,90.38
2023-03-02T13:56:03.520Z,90.79
2023-03-02T13:58:40.011Z,90.37
2023-03-02T14:01:09.078Z,90.44
2023-03-02T14:03:40.557Z,89.45
2023-03-02T14:06:11.208Z,89.04
2023-03-02T14:08:41.256Z,88.88
2023-03-02T14:11:12.940Z,87.67
2023-03-02T14:13:47.355Z,87.65
2023-03-02T14:16:19.274Z,87.54
2023-03-02T14:18:53.011Z,87.49
2023-03-02T14:21:23.861Z,86.92
2023-03-02T14:23:54.850Z,87.16
2023-03-02T14:26:35.149Z,89.38
2023-03-02T14:29:23.316Z,85.65
2023-03-02T14:31:53.765Z,78.94
2023-03-02T14:34:24.774Z,75.92
2023-03-02T14:36:57.916Z,76.42
2023-03-02T14:39:35.450Z,75.10
2023-03-02T14:42:05.601Z,74.95
2023-03-02T14:44:35.918Z,74.76
2023-03-02T14:47:05.368Z,73.00
2023-03-02T14:49:36.251Z,73.21
2023-03-02T14:52:10.742Z,73.81
2023-03-02T14:54:47.723Z,74.86
2023-03-02T14:57:21.262Z,74.35
2023-03-02T14:59:51.212Z,75.14
2023-03-02T15:02:26.147Z,74.44
2023-03-02T15:04:57.944Z,73.17
2023-03-02T15:07:28.959Z,73.25
2023-03-02T15:10:00.317Z,72.45
2023-03-02T15:12:29.744Z,72.01
2023-03-02T15:14:58.293Z,71.75
2023-03-02T15:17:28.337Z,71.60
2023-03-02T15:19:59.269Z,71.69
2023-03-02T15:22:29.409Z,72.29
2023-03-02T15:24:59.379Z,71.82
2023-03-02T15:27:28.451Z,71.49
2023-03-02T15:29:59.512Z,71.31
2023-03-02T15:32:29.537Z,70.54
2023-03-02T15:35:00.657Z,70.32
2023-03-02T15:37:29.784Z,70.41
2023-03-02T15:39:59.429Z,69.05
2023-03-02T15:42:28.467Z,68.61
2023-03-02T15:44:57.520Z,69.47
2023-03-02T15:47:27.265Z,68.63
2023-03-02T15:49:57.152Z,69.43
2023-03-02T15:52:27.544Z,68.65
2023-03-02T15:54:57.477Z,68.20
2023-03-02T15:57:26.416Z,69.29
2023-03-02T15:59:56.393Z,69.36
2023-03-02T16:02:26.368Z,69.96
2023-03-02T16:04:57.205Z,70.26
2023-03-02T16:07:27.468Z,70.43
2023-03-02T16:09:57.924Z,70.73
2023-03-02T16:12:28.109Z,71.18
2023-03-02T16:14:57.068Z,69.77
2023-03-02T16:17:28.029Z,70.41
2023-03-02T16:19:57.467Z,70.52
2023-03-02T16:22:28.315Z,71.45
2023-03-02T16:24:58.220Z,71.69
2023-03-02T16:27:28.333Z,72.66
2023-03-02T16:29:58.001Z,73.53
2023-03-02T16:32:27.028Z,74.26
2023-03-02T16:34:56.723Z,74.50
2023-03-02T16:37:27.671Z,74.36
2023-03-02T16:39:58.763Z,74.89
2023-03-02T16:42:30.943Z,74.45
2023-03-02T16:45:01.146Z,74.20
2023-03-02T16:47:30.871Z,73.82
2023-03-02T16:50:01.064Z,74.04
2023-03-02T16:52:31.941Z,75.24
2023-03-02T16:55:02.132Z,75.49
2023-03-02T16:57:31.295Z,75.91
2023-03-02T17:00:01.216Z,77.47
2023-03-02T17:02:32.363Z,77.77
2023-03-02T17:05:01.654Z,77.17
2023-03-02T17:07:32.058Z,77.59
2023-03-02T17:10:01.140Z,77.63
2023-03-02T17:12:31.261Z,77.08
2023-03-02T17:15:00.437Z,77.40
2023-03-02T17:17:30.000Z,78.01
2023-03-02T17:20:00.622Z,78.01
2023-03-02T17:22:31.898Z,78.59
2023-03-02T17:25:02.380Z,79.02
2023-03-02T17:27:33.033Z,79.05
2023-03-02T17:30:02.563Z,79.58
2023-03-02T17:32:32.638Z,80.28
2023-03-02T17:35:02.540Z,81.04
2023-03-02T17:37:33.118Z,81.32
2023-03-02T17:40:03.282Z,81.92
2023-03-02T17:42:33.358Z,82.33
2023-03-02T17:45:02.723Z,82.95
2023-03-02T17:47:33.526Z,83.23
2023-03-02T17:50:06.210Z,84.39
2023-03-02T17:52:36.026Z,84.57
2023-03-02T17:55:06.385Z,85.02
2023-03-02T17:57:36.316Z,86.09
2023-03-02T18:00:09.374Z,87.28
2023-03-02T18:02:39.348Z,87.53
2023-03-02T18:05:10.514Z,89.11
2023-03-02T18:07:41.324Z,89.78
2023-03-02T18:10:13.684Z,89.86
2023-03-02T18:12:43.346Z,90.74
2023-03-02T18:15:14.407Z,91.93
2023-03-02T18:17:45.697Z,92.40
2023-03-02T18:20:15.457Z,94.32
2023-03-02T18:22:46.599Z,97.42
2023-03-02T18:25:16.552Z,98.18
2023-03-02T18:27:46.851Z,100.00
2023-03-02T18:30:16.933Z,99.97
2023-03-02T18:32:47.059Z,100.00
2023-03-02T18:35:16.497Z,100.00
2023-03-02T18:37:48.841Z,100.00
2023-03-02T18:40:19.542Z,100.00
2023-03-02T18:42:48.634Z,100.00
2023-03-02T18:45:25.664Z,100.00
2023-03-02T18:47:55.751Z,100.00
2023-03-02T18:50:26.366Z,100.00
2023-03-02T18:52:57.293Z,100.00
2023-03-02T18:55:27.600Z,100.00
2023-03-02T18:57:57.204Z,100.00
2023-03-02T19:00:28.707Z,100.00
2023-03-02T19:02:58.305Z,100.00
2023-03-02T19:05:30.437Z,100.00
2023-03-02T19:08:02.793Z,100.00
2023-03-02T19:10:33.635Z,100.00
2023-03-02T19:13:02.904Z,100.00
2023-03-02T19:15:33.783Z,100.00
2023-03-02T19:18:02.978Z,100.00
2023-03-02T19:20:31.482Z,100.00
2023-03-02T19:23:02.946Z,100.00
2023-03-02T19:25:33.626Z,100.00
2023-03-02T19:28:03.586Z,100.00
2023-03-02T19:30:34.771Z,100.00
2023-03-02T19:33:06.097Z,100.00
2023-03-02T19:35:35.911Z,100.00
2023-03-02T19:38:06.380Z,100.00
2023-03-02T19:40:37.766Z,100.00
2023-03-02T19:43:07.761Z,100.00
2023-03-02T19:45:38.681Z,100.00
2023-03-02T19:48:14.316Z,100.00
2023-03-02T19:50:45.524Z,100.00
2023-03-02T19:53:17.141Z,100.00
2023-03-02T19:55:45.786Z,100.00
2023-03-02T19:58:17.343Z,100.00
2023-03-02T20:00:48.395Z,100.00
2023-03-02T20:03:17.903Z,100.00
2023-03-02T20:05:46.352Z,100.00
2023-03-02T20:08:17.870Z,100.00
2023-03-02T20:10:50.009Z,100.00
2023-03-02T20:13:19.625Z,100.00
2023-03-02T20:15:49.598Z,100.00
2023-03-02T20:18:21.307Z,100.00
2023-03-02T20:20:50.806Z,100.00
2023-03-02T20:23:22.730Z,100.00
2023-03-02T20:25:52.185Z,100.00
2023-03-02T20:28:25.151Z,100.00
2023-03-02T20:30:58.598Z,100.00
2023-03-02T20:33:32.202Z,100.00
2023-03-02T20:36:03.944Z,100.00
2023-03-02T20:38:38.895Z,100.00
2023-03-02T20:41:11.771Z,100.00
2023-03-02T20:43:42.162Z,100.00
2023-03-02T20:46:20.328Z,100.00
2023-03-02T20:48:49.927Z,100.00
2023-03-02T20:51:19.244Z,100.00
2023-03-02T20:53:50.669Z,100.00
2023-03-02T20:56:20.352Z,100.00
2023-03-02T20:58:50.734Z,100.00
2023-03-02T21:01:21.809Z,100.00
2023-03-02T21:03:52.392Z,100.00
2023-03-02T21:06:21.508Z,100.00
2023-03-02T21:08:53.436Z,100.00
2023-03-02T21:11:23.171Z,100.00
2023-03-02T21:13:51.771Z,100.00
2023-03-02T21:16:27.325Z,100.00
2023-03-02T21:18:56.519Z,100.00
2023-03-02T21:21:40.657Z,100.00
2023-03-02T21:24:17.156Z,100.00
2023-03-02T21:26:47.557Z,100.00
2023-03-02T21:29:17.845Z,100.00
2023-03-02T21:31:48.522Z,100.00
2023-03-02T21:34:18.974Z,100.00
2023-03-02T21:36:48.350Z,100.00
2023-03-02T21:39:18.265Z,100.00
2023-03-02T21:41:49.297Z,100.00
2023-03-02T21:44:19.947Z,100.00
2023-03-02T21:46:48.995Z,100.00
2023-03-02T21:49:22.379Z,100.00
2023-03-02T21:51:52.447Z,100.00
2023-03-02T21:54:23.251Z,100.00
2023-03-02T21:56:52.235Z,100.00
2023-03-02T21:59:22.444Z,100.00
2023-03-02T22:01:52.479Z,100.00
2023-03-02T22:04:22.636Z,100.00
2023-03-02T22:06:52.083Z,100.00
2023-03-02T22:09:23.205Z,100.00
2023-03-02T22:11:53.395Z,100.00
2023-03-02T22:14:23.204Z,100.00
2023-03-02T22:16:52.178Z,100.00
2023-03-02T22:19:27.232Z,100.00
2023-03-02T22:21:57.985Z,100.00
2023-03-02T22:24:31.524Z,100.00
2023-03-02T22:27:10.683Z,100.00
2023-03-02T22:29:44.725Z,100.00
2023-03-02T22:32:20.100Z,100.00
2023-03-02T22:34:53.600Z,100.00
2023-03-02T22:37:25.682Z,100.00
2023-03-02T22:40:01.997Z,100.00
2023-03-02T22:42:31.908Z,100.00
2023-03-02T22:45:13.655Z,100.00
2023-03-02T22:47:44.294Z,100.00
2023-03-02T22:50:23.816Z,100.00
2023-03-02T22:52:54.954Z,100.00
2023-03-02T22:55:38.848Z,100.00
2023-03-02T22:58:33.155Z,100.00
2023-03-02T23:01:04.613Z,100.00
2023-03-02T23:03:48.149Z,100.00
2023-03-02T23:06:31.411Z,100.00
2023-03-02T23:09:02.794Z,100.00
2023-03-02T23:11:39.153Z,100.00
2023-03-02T23:14:26.901Z,100.00
2023-03-02T23:17:01.464Z,100.00
2023-03-02T23:19:32.982Z,100.00
2023-03-02T23:22:02.785Z,100.00
2023-03-02T23:24:31.663Z,100.00
2023-03-02T23:27:02.591Z,100.00
2023-03-02T23:29:31.634Z,100.00
2023-03-02T23:32:02.243Z,100.00
2023-03-02T23:34:32.055Z,100.00
2023-03-02T23:37:01.161Z,100.00
2023-03-02T23:39:29.665Z,100.00
2023-03-02T23:42:00.840Z,100.00
2023-03-02T23:44:30.783Z,100.00
2023-03-02T23:47:00.271Z,100.00
2023-03-02T23:49:30.138Z,100.00
2023-03-02T23:51:59.779Z,100.00
2023-03-02T23:54:28.754Z,100.00
2023-03-02T23:56:59.176Z,100.00
2023-03-02T23:59:30.475Z,100.00
